sensor_id;sensor_type;location;lat;lon;timestamp;temperature;humidity
40600;DHT22;26309;50.924;4.754;2023-04-03T00:01:15;2.70;99.90
40600;DHT22;26309;50.924;4.754;2023-04-03T00:03:42;2.80;99.90
40600;DHT22;26309;50.924;4.754;2023-04-03T00:06:10;2.80;99.90
40600;DHT22;26309;50.924;4.754;2023-04-03T00:08:37;2.60;99.90
40600;DHT22;26309;50.924;4.754;2023-04-03T00:11:04;2.60;99.90
40600;DHT22;26309;50.924;4.754;2023-04-03T00:13:30;2.70;99.90
40600;DHT22;26309;50.924;4.754;2023-04-03T00:15:57;2.70;99.90
40600;DHT22;26309;50.924;4.754;2023-04-03T00:18:22;2.60;99.90
40600;DHT22;26309;50.924;4.754;2023-04-03T00:20:49;2.40;99.90
40600;DHT22;26309;50.924;4.754;2023-04-03T00:23:15;2.40;99.90
40600;DHT22;26309;50.924;4.754;2023-04-03T00:25:42;2.30;99.90
40600;DHT22;26309;50.924;4.754;2023-04-03T00:28:09;2.30;99.90
40600;DHT22;26309;50.924;4.754;2023-04-03T00:30:35;2.20;99.90
40600;DHT22;26309;50.924;4.754;2023-04-03T00:33:01;2.20;99.90
40600;DHT22;26309;50.924;4.754;2023-04-03T00:35:27;2.30;99.90
40600;DHT22;26309;50.924;4.754;2023-04-03T00:37:54;2.30;99.90
40600;DHT22;26309;50.924;4.754;2023-04-03T00:40:22;2.30;99.90
40600;DHT22;26309;50.924;4.754;2023-04-03T00:42:54;2.20;99.90
40600;DHT22;26309;50.924;4.754;2023-04-03T00:45:34;2.20;99.90
40600;DHT22;26309;50.924;4.754;2023-04-03T00:48:03;2.20;99.90
40600;DHT22;26309;50.924;4.754;2023-04-03T00:50:35;2.20;99.90
40600;DHT22;26309;50.924;4.754;2023-04-03T00:53:04;2.20;99.90
40600;DHT22;26309;50.924;4.754;2023-04-03T00:55:30;2.10;99.90
40600;DHT22;26309;50.924;4.754;2023-04-03T00:57:57;2.10;99.90
40600;DHT22;26309;50.924;4.754;2023-04-03T01:00:24;2.10;99.90
40600;DHT22;26309;50.924;4.754;2023-04-03T01:02:51;2.10;99.90
40600;DHT22;26309;50.924;4.754;2023-04-03T01:05:17;2.10;99.90
40600;DHT22;26309;50.924;4.754;2023-04-03T01:07:45;2.10;99.90
40600;DHT22;26309;50.924;4.754;2023-04-03T01:10:14;2.00;99.90
40600;DHT22;26309;50.924;4.754;2023-04-03T01:12:42;2.00;99.90
40600;DHT22;26309;50.924;4.754;2023-04-03T01:15:23;2.10;99.90
40600;DHT22;26309;50.924;4.754;2023-04-03T01:17:57;2.00;99.90
40600;DHT22;26309;50.924;4.754;2023-04-03T01:23:45;1.90;99.90
40600;DHT22;26309;50.924;4.754;2023-04-03T01:26:07;1.90;99.90
40600;DHT22;26309;50.924;4.754;2023-04-03T01:28:36;1.80;99.90
40600;DHT22;26309;50.924;4.754;2023-04-03T01:31:32;1.80;99.90
40600;DHT22;26309;50.924;4.754;2023-04-03T01:34:00;1.80;99.90
40600;DHT22;26309;50.924;4.754;2023-04-03T01:36:29;1.90;99.90
40600;DHT22;26309;50.924;4.754;2023-04-03T01:38:56;1.90;99.90
40600;DHT22;26309;50.924;4.754;2023-04-03T01:41:22;1.80;99.90
40600;DHT22;26309;50.924;4.754;2023-04-03T01:43:48;1.70;99.90
40600;DHT22;26309;50.924;4.754;2023-04-03T01:46:17;1.70;99.90
40600;DHT22;26309;50.924;4.754;2023-04-03T01:48:43;1.70;99.90
40600;DHT22;26309;50.924;4.754;2023-04-03T01:51:10;1.80;99.90
40600;DHT22;26309;50.924;4.754;2023-04-03T01:53:35;1.70;99.90
40600;DHT22;26309;50.924;4.754;2023-04-03T01:56:02;1.70;99.90
40600;DHT22;26309;50.924;4.754;2023-04-03T01:58:27;1.70;99.90
40600;DHT22;26309;50.924;4.754;2023-04-03T02:00:53;1.70;99.90
40600;DHT22;26309;50.924;4.754;2023-04-03T02:03:20;1.90;99.90
40600;DHT22;26309;50.924;4.754;2023-04-03T02:05:46;2.00;99.90
40600;DHT22;26309;50.924;4.754;2023-04-03T02:08:12;2.00;99.90
40600;DHT22;26309;50.924;4.754;2023-04-03T02:10:39;2.00;99.90
40600;DHT22;26309;50.924;4.754;2023-04-03T02:13:05;1.90;99.90
40600;DHT22;26309;50.924;4.754;2023-04-03T02:15:31;1.80;99.90
40600;DHT22;26309;50.924;4.754;2023-04-03T02:17:57;1.70;99.90
40600;DHT22;26309;50.924;4.754;2023-04-03T02:20:23;1.50;99.90
40600;DHT22;26309;50.924;4.754;2023-04-03T02:22:49;1.50;99.90
40600;DHT22;26309;50.924;4.754;2023-04-03T02:25:15;1.40;99.90
40600;DHT22;26309;50.924;4.754;2023-04-03T02:27:41;1.40;99.90
40600;DHT22;26309;50.924;4.754;2023-04-03T02:30:07;1.40;99.90
40600;DHT22;26309;50.924;4.754;2023-04-03T02:32:36;1.40;99.90
40600;DHT22;26309;50.924;4.754;2023-04-03T02:35:02;1.40;99.90
40600;DHT22;26309;50.924;4.754;2023-04-03T02:37:28;1.50;99.90
40600;DHT22;26309;50.924;4.754;2023-04-03T02:39:53;1.50;99.90
40600;DHT22;26309;50.924;4.754;2023-04-03T02:42:19;1.40;99.90
40600;DHT22;26309;50.924;4.754;2023-04-03T02:44:45;1.40;99.90
40600;DHT22;26309;50.924;4.754;2023-04-03T02:47:12;1.40;99.90
40600;DHT22;26309;50.924;4.754;2023-04-03T02:49:37;1.40;99.90
40600;DHT22;26309;50.924;4.754;2023-04-03T02:52:03;1.40;99.90
40600;DHT22;26309;50.924;4.754;2023-04-03T02:54:29;1.40;99.90
40600;DHT22;26309;50.924;4.754;2023-04-03T02:56:56;1.50;99.90
40600;DHT22;26309;50.924;4.754;2023-04-03T02:59:23;1.50;99.90
40600;DHT22;26309;50.924;4.754;2023-04-03T03:01:48;1.40;99.90
40600;DHT22;26309;50.924;4.754;2023-04-03T03:04:17;1.40;99.90
40600;DHT22;26309;50.924;4.754;2023-04-03T03:06:43;1.30;99.90
40600;DHT22;26309;50.924;4.754;2023-04-03T03:09:10;1.30;99.90
40600;DHT22;26309;50.924;4.754;2023-04-03T03:11:35;1.30;99.90
40600;DHT22;26309;50.924;4.754;2023-04-03T03:14:01;1.30;99.90
40600;DHT22;26309;50.924;4.754;2023-04-03T03:16:27;1.30;99.90
40600;DHT22;26309;50.924;4.754;2023-04-03T03:18:53;1.20;99.90
40600;DHT22;26309;50.924;4.754;2023-04-03T03:21:19;1.20;99.90
40600;DHT22;26309;50.924;4.754;2023-04-03T03:23:44;1.20;99.90
40600;DHT22;26309;50.924;4.754;2023-04-03T03:26:11;1.10;99.90
40600;DHT22;26309;50.924;4.754;2023-04-03T03:28:39;1.20;99.90
40600;DHT22;26309;50.924;4.754;2023-04-03T03:31:04;1.10;99.90
40600;DHT22;26309;50.924;4.754;2023-04-03T03:33:31;1.20;99.90
40600;DHT22;26309;50.924;4.754;2023-04-03T03:35:57;1.30;99.90
40600;DHT22;26309;50.924;4.754;2023-04-03T03:38:24;1.20;99.90
40600;DHT22;26309;50.924;4.754;2023-04-03T03:40:51;1.20;99.90
40600;DHT22;26309;50.924;4.754;2023-04-03T03:43:18;1.10;99.90
40600;DHT22;26309;50.924;4.754;2023-04-03T03:45:44;1.00;99.90
40600;DHT22;26309;50.924;4.754;2023-04-03T03:48:12;1.10;99.90
40600;DHT22;26309;50.924;4.754;2023-04-03T03:50:41;1.10;99.90
40600;DHT22;26309;50.924;4.754;2023-04-03T03:53:06;1.10;99.90
40600;DHT22;26309;50.924;4.754;2023-04-03T03:55:32;1.10;99.90
40600;DHT22;26309;50.924;4.754;2023-04-03T03:57:58;1.10;99.90
40600;DHT22;26309;50.924;4.754;2023-04-03T04:00:25;1.00;99.90
40600;DHT22;26309;50.924;4.754;2023-04-03T04:02:51;1.00;99.90
40600;DHT22;26309;50.924;4.754;2023-04-03T04:05:20;1.00;99.90
40600;DHT22;26309;50.924;4.754;2023-04-03T04:07:46;0.90;99.90
40600;DHT22;26309;50.924;4.754;2023-04-03T04:10:11;0.80;99.90
40600;DHT22;26309;50.924;4.754;2023-04-03T04:12:39;0.80;99.90
40600;DHT22;26309;50.924;4.754;2023-04-03T04:15:05;0.70;99.90
40600;DHT22;26309;50.924;4.754;2023-04-03T04:17:31;0.70;99.90
40600;DHT22;26309;50.924;4.754;2023-04-03T04:19:57;0.70;99.90
40600;DHT22;26309;50.924;4.754;2023-04-03T04:22:23;0.70;99.90
40600;DHT22;26309;50.924;4.754;2023-04-03T04:24:49;0.70;99.90
40600;DHT22;26309;50.924;4.754;2023-04-03T04:27:15;0.70;99.90
40600;DHT22;26309;50.924;4.754;2023-04-03T04:29:41;0.80;99.90
40600;DHT22;26309;50.924;4.754;2023-04-03T04:32:07;0.70;99.90
40600;DHT22;26309;50.924;4.754;2023-04-03T04:34:34;0.80;99.90
40600;DHT22;26309;50.924;4.754;2023-04-03T04:37:00;0.70;99.90
40600;DHT22;26309;50.924;4.754;2023-04-03T04:39:26;0.70;99.90
40600;DHT22;26309;50.924;4.754;2023-04-03T04:41:52;0.60;99.90
40600;DHT22;26309;50.924;4.754;2023-04-03T04:44:18;0.70;99.90
40600;DHT22;26309;50.924;4.754;2023-04-03T04:46:44;0.70;99.90
40600;DHT22;26309;50.924;4.754;2023-04-03T04:49:09;0.60;99.90
40600;DHT22;26309;50.924;4.754;2023-04-03T04:51:35;0.60;99.90
40600;DHT22;26309;50.924;4.754;2023-04-03T04:54:01;0.60;99.90
40600;DHT22;26309;50.924;4.754;2023-04-03T04:56:27;0.70;99.90
40600;DHT22;26309;50.924;4.754;2023-04-03T04:58:52;0.60;99.90
40600;DHT22;26309;50.924;4.754;2023-04-03T05:01:18;0.60;99.90
40600;DHT22;26309;50.924;4.754;2023-04-03T05:03:44;0.70;99.90
40600;DHT22;26309;50.924;4.754;2023-04-03T05:06:10;0.60;99.90
40600;DHT22;26309;50.924;4.754;2023-04-03T05:08:36;0.70;99.90
40600;DHT22;26309;50.924;4.754;2023-04-03T05:11:02;0.80;99.90
40600;DHT22;26309;50.924;4.754;2023-04-03T05:13:28;0.80;99.90
40600;DHT22;26309;50.924;4.754;2023-04-03T05:15:53;0.70;99.90
40600;DHT22;26309;50.924;4.754;2023-04-03T05:18:19;0.70;99.90
40600;DHT22;26309;50.924;4.754;2023-04-03T05:20:47;0.70;99.90
40600;DHT22;26309;50.924;4.754;2023-04-03T05:23:13;0.70;99.90
40600;DHT22;26309;50.924;4.754;2023-04-03T05:25:39;0.70;99.90
40600;DHT22;26309;50.924;4.754;2023-04-03T05:28:05;0.80;99.90
40600;DHT22;26309;50.924;4.754;2023-04-03T05:30:31;0.90;99.90
40600;DHT22;26309;50.924;4.754;2023-04-03T05:32:59;0.90;99.90
40600;DHT22;26309;50.924;4.754;2023-04-03T05:35:25;1.10;99.90
40600;DHT22;26309;50.924;4.754;2023-04-03T05:37:51;1.10;99.90
40600;DHT22;26309;50.924;4.754;2023-04-03T05:40:18;1.30;99.90
40600;DHT22;26309;50.924;4.754;2023-04-03T05:42:44;1.30;99.90
40600;DHT22;26309;50.924;4.754;2023-04-03T05:45:10;1.30;99.90
40600;DHT22;26309;50.924;4.754;2023-04-03T05:47:36;1.30;99.90
40600;DHT22;26309;50.924;4.754;2023-04-03T05:50:03;1.40;99.90
40600;DHT22;26309;50.924;4.754;2023-04-03T05:52:35;1.40;99.90
40600;DHT22;26309;50.924;4.754;2023-04-03T05:55:02;1.40;99.90
40600;DHT22;26309;50.924;4.754;2023-04-03T05:57:28;1.50;99.90
40600;DHT22;26309;50.924;4.754;2023-04-03T05:59:53;1.60;99.90
40600;DHT22;26309;50.924;4.754;2023-04-03T06:02:21;1.70;99.90
40600;DHT22;26309;50.924;4.754;2023-04-03T06:04:48;1.80;99.90
40600;DHT22;26309;50.924;4.754;2023-04-03T06:07:17;2.00;99.90
40600;DHT22;26309;50.924;4.754;2023-04-03T06:09:43;2.40;99.90
40600;DHT22;26309;50.924;4.754;2023-04-03T06:12:09;2.70;99.90
40600;DHT22;26309;50.924;4.754;2023-04-03T06:14:35;2.80;99.90
40600;DHT22;26309;50.924;4.754;2023-04-03T06:17:01;3.10;99.90
40600;DHT22;26309;50.924;4.754;2023-04-03T06:19:28;3.30;99.90
40600;DHT22;26309;50.924;4.754;2023-04-03T06:21:54;3.60;99.90
40600;DHT22;26309;50.924;4.754;2023-04-03T06:24:20;3.80;99.90
40600;DHT22;26309;50.924;4.754;2023-04-03T06:26:48;3.90;99.90
40600;DHT22;26309;50.924;4.754;2023-04-03T06:29:15;4.00;99.90
40600;DHT22;26309;50.924;4.754;2023-04-03T06:31:41;4.20;99.90
40600;DHT22;26309;50.924;4.754;2023-04-03T06:34:07;4.40;99.90
40600;DHT22;26309;50.924;4.754;2023-04-03T06:36:34;4.60;99.90
40600;DHT22;26309;50.924;4.754;2023-04-03T06:39:00;4.70;99.90
40600;DHT22;26309;50.924;4.754;2023-04-03T06:41:27;4.90;99.90
40600;DHT22;26309;50.924;4.754;2023-04-03T06:43:53;4.90;99.90
40600;DHT22;26309;50.924;4.754;2023-04-03T06:46:21;5.10;99.90
40600;DHT22;26309;50.924;4.754;2023-04-03T06:48:47;5.20;99.90
40600;DHT22;26309;50.924;4.754;2023-04-03T06:51:21;5.30;99.90
40600;DHT22;26309;50.924;4.754;2023-04-03T06:53:49;5.20;99.90
40600;DHT22;26309;50.924;4.754;2023-04-03T06:56:15;5.20;99.90
40600;DHT22;26309;50.924;4.754;2023-04-03T06:58:43;5.10;99.90
40600;DHT22;26309;50.924;4.754;2023-04-03T07:01:10;5.20;99.90
40600;DHT22;26309;50.924;4.754;2023-04-03T07:03:36;5.30;99.90
40600;DHT22;26309;50.924;4.754;2023-04-03T07:06:04;5.20;99.90
40600;DHT22;26309;50.924;4.754;2023-04-03T07:08:30;5.10;99.90
40600;DHT22;26309;50.924;4.754;2023-04-03T07:10:56;5.10;99.90
40600;DHT22;26309;50.924;4.754;2023-04-03T07:13:22;5.10;99.90
40600;DHT22;26309;50.924;4.754;2023-04-03T07:15:48;5.20;99.90
40600;DHT22;26309;50.924;4.754;2023-04-03T07:18:14;5.30;99.90
40600;DHT22;26309;50.924;4.754;2023-04-03T07:20:40;5.30;99.90
40600;DHT22;26309;50.924;4.754;2023-04-03T07:23:06;5.40;99.90
40600;DHT22;26309;50.924;4.754;2023-04-03T07:25:32;5.50;99.90
40600;DHT22;26309;50.924;4.754;2023-04-03T07:28:00;5.50;99.90
40600;DHT22;26309;50.924;4.754;2023-04-03T07:30:26;5.70;99.90
40600;DHT22;26309;50.924;4.754;2023-04-03T07:32:52;5.90;99.90
40600;DHT22;26309;50.924;4.754;2023-04-03T07:35:18;6.00;99.90
40600;DHT22;26309;50.924;4.754;2023-04-03T07:37:44;6.10;99.90
40600;DHT22;26309;50.924;4.754;2023-04-03T07:40:11;6.10;99.90
40600;DHT22;26309;50.924;4.754;2023-04-03T07:42:37;6.00;99.90
40600;DHT22;26309;50.924;4.754;2023-04-03T07:45:03;6.00;99.90
40600;DHT22;26309;50.924;4.754;2023-04-03T07:47:30;6.20;99.90
40600;DHT22;26309;50.924;4.754;2023-04-03T07:49:57;6.20;99.90
40600;DHT22;26309;50.924;4.754;2023-04-03T07:52:24;6.50;99.90
40600;DHT22;26309;50.924;4.754;2023-04-03T07:54:50;6.20;99.90
40600;DHT22;26309;50.924;4.754;2023-04-03T07:57:16;5.80;99.90
40600;DHT22;26309;50.924;4.754;2023-04-03T07:59:42;5.80;99.90
40600;DHT22;26309;50.924;4.754;2023-04-03T08:02:09;5.90;99.90
40600;DHT22;26309;50.924;4.754;2023-04-03T08:04:35;5.80;99.90
40600;DHT22;26309;50.924;4.754;2023-04-03T08:07:01;5.80;99.90
40600;DHT22;26309;50.924;4.754;2023-04-03T08:09:27;6.10;99.90
40600;DHT22;26309;50.924;4.754;2023-04-03T08:11:53;6.30;99.90
40600;DHT22;26309;50.924;4.754;2023-04-03T08:14:19;6.50;99.90
40600;DHT22;26309;50.924;4.754;2023-04-03T08:16:47;6.60;99.90
40600;DHT22;26309;50.924;4.754;2023-04-03T08:19:14;6.90;99.90
40600;DHT22;26309;50.924;4.754;2023-04-03T08:21:42;7.00;99.90
40600;DHT22;26309;50.924;4.754;2023-04-03T08:24:09;7.00;99.90
40600;DHT22;26309;50.924;4.754;2023-04-03T08:26:35;7.00;99.90
40600;DHT22;26309;50.924;4.754;2023-04-03T08:29:01;7.00;99.90
40600;DHT22;26309;50.924;4.754;2023-04-03T08:31:27;7.00;99.90
40600;DHT22;26309;50.924;4.754;2023-04-03T08:33:53;7.20;99.90
40600;DHT22;26309;50.924;4.754;2023-04-03T08:36:22;7.40;99.90
40600;DHT22;26309;50.924;4.754;2023-04-03T08:38:50;7.60;99.90
40600;DHT22;26309;50.924;4.754;2023-04-03T08:41:33;7.50;99.90
40600;DHT22;26309;50.924;4.754;2023-04-03T08:49:43;7.00;99.90
40600;DHT22;26309;50.924;4.754;2023-04-03T08:52:20;7.10;99.90
40600;DHT22;26309;50.924;4.754;2023-04-03T08:57:16;7.70;99.90
40600;DHT22;26309;50.924;4.754;2023-04-03T08:59:43;7.90;99.90
40600;DHT22;26309;50.924;4.754;2023-04-03T09:02:30;8.00;99.90
40600;DHT22;26309;50.924;4.754;2023-04-03T09:04:58;8.10;99.90
40600;DHT22;26309;50.924;4.754;2023-04-03T09:07:38;8.30;99.90
40600;DHT22;26309;50.924;4.754;2023-04-03T09:10:06;8.30;99.90
40600;DHT22;26309;50.924;4.754;2023-04-03T09:12:46;8.00;99.90
40600;DHT22;26309;50.924;4.754;2023-04-03T09:15:24;8.10;99.90
40600;DHT22;26309;50.924;4.754;2023-04-03T09:21:00;8.50;99.90
40600;DHT22;26309;50.924;4.754;2023-04-03T09:23:50;8.60;99.90
40600;DHT22;26309;50.924;4.754;2023-04-03T09:28:45;8.60;99.90
40600;DHT22;26309;50.924;4.754;2023-04-03T09:31:36;8.40;99.90
40600;DHT22;26309;50.924;4.754;2023-04-03T09:34:06;8.50;99.90
40600;DHT22;26309;50.924;4.754;2023-04-03T09:36:46;8.50;99.90
40600;DHT22;26309;50.924;4.754;2023-04-03T09:39:58;8.60;99.90
40600;DHT22;26309;50.924;4.754;2023-04-03T09:42:25;8.80;99.90
40600;DHT22;26309;50.924;4.754;2023-04-03T09:45:00;9.00;99.90
40600;DHT22;26309;50.924;4.754;2023-04-03T09:47:36;8.30;99.90
40600;DHT22;26309;50.924;4.754;2023-04-03T09:50:19;8.40;99.90
40600;DHT22;26309;50.924;4.754;2023-04-03T09:52:51;8.30;99.90
40600;DHT22;26309;50.924;4.754;2023-04-03T09:55:25;8.40;99.90
40600;DHT22;26309;50.924;4.754;2023-04-03T09:58:03;8.50;99.90
40600;DHT22;26309;50.924;4.754;2023-04-03T10:00:37;8.60;99.90
40600;DHT22;26309;50.924;4.754;2023-04-03T10:03:05;8.50;99.90
40600;DHT22;26309;50.924;4.754;2023-04-03T10:05:35;8.50;99.90
40600;DHT22;26309;50.924;4.754;2023-04-03T10:10:41;8.50;99.90
40600;DHT22;26309;50.924;4.754;2023-04-03T10:13:13;8.40;99.90
40600;DHT22;26309;50.924;4.754;2023-04-03T10:15:51;8.50;99.90
40600;DHT22;26309;50.924;4.754;2023-04-03T10:21:08;8.60;99.90
40600;DHT22;26309;50.924;4.754;2023-04-03T10:34:53;9.00;99.90
40600;DHT22;26309;50.924;4.754;2023-04-03T10:37:30;9.00;99.10
40600;DHT22;26309;50.924;4.754;2023-04-03T10:40:31;9.10;96.70
40600;DHT22;26309;50.924;4.754;2023-04-03T10:43:42;8.70;94.30
40600;DHT22;26309;50.924;4.754;2023-04-03T10:46:18;8.60;95.30
40600;DHT22;26309;50.924;4.754;2023-04-03T10:49:09;9.00;96.30
40600;DHT22;26309;50.924;4.754;2023-04-03T10:54:38;9.20;99.90
40600;DHT22;26309;50.924;4.754;2023-04-03T10:57:08;9.30;98.00
40600;DHT22;26309;50.924;4.754;2023-04-03T11:04:43;9.40;98.90
40600;DHT22;26309;50.924;4.754;2023-04-03T11:07:15;8.80;94.80
40600;DHT22;26309;50.924;4.754;2023-04-03T11:09:44;8.80;94.80
40600;DHT22;26309;50.924;4.754;2023-04-03T11:14:50;8.90;95.30
40600;DHT22;26309;50.924;4.754;2023-04-03T11:28:00;9.00;82.20
40600;DHT22;26309;50.924;4.754;2023-04-03T11:33:19;8.90;81.50
40600;DHT22;26309;50.924;4.754;2023-04-03T11:35:51;9.00;78.80
40600;DHT22;26309;50.924;4.754;2023-04-03T11:38:30;9.20;79.60
40600;DHT22;26309;50.924;4.754;2023-04-03T11:41:00;9.20;81.20
40600;DHT22;26309;50.924;4.754;2023-04-03T11:43:32;9.30;82.60
40600;DHT22;26309;50.924;4.754;2023-04-03T11:46:08;9.60;80.10
40600;DHT22;26309;50.924;4.754;2023-04-03T11:51:04;9.90;89.00
40600;DHT22;26309;50.924;4.754;2023-04-03T11:53:48;9.90;79.10
40600;DHT22;26309;50.924;4.754;2023-04-03T12:01:47;9.90;76.30
40600;DHT22;26309;50.924;4.754;2023-04-03T12:04:15;9.90;73.80
40600;DHT22;26309;50.924;4.754;2023-04-03T12:09:29;9.90;77.50
40600;DHT22;26309;50.924;4.754;2023-04-03T12:12:00;10.00;75.60
40600;DHT22;26309;50.924;4.754;2023-04-03T12:14:28;9.80;66.00
40600;DHT22;26309;50.924;4.754;2023-04-03T12:16:55;9.70;68.40
40600;DHT22;26309;50.924;4.754;2023-04-03T12:19:38;9.80;66.10
40600;DHT22;26309;50.924;4.754;2023-04-03T12:22:08;9.80;67.20
40600;DHT22;26309;50.924;4.754;2023-04-03T12:24:37;9.80;67.60
40600;DHT22;26309;50.924;4.754;2023-04-03T12:35:34;9.80;63.90
40600;DHT22;26309;50.924;4.754;2023-04-03T12:41:16;9.90;65.30
40600;DHT22;26309;50.924;4.754;2023-04-03T12:46:39;10.00;65.30
40600;DHT22;26309;50.924;4.754;2023-04-03T12:51:54;10.00;67.00
40600;DHT22;26309;50.924;4.754;2023-04-03T12:54:36;9.90;66.20
40600;DHT22;26309;50.924;4.754;2023-04-03T12:57:24;10.00;74.40
40600;DHT22;26309;50.924;4.754;2023-04-03T12:59:52;9.90;62.90
40600;DHT22;26309;50.924;4.754;2023-04-03T13:04:46;10.10;70.00
40600;DHT22;26309;50.924;4.754;2023-04-03T13:07:30;10.30;69.80
40600;DHT22;26309;50.924;4.754;2023-04-03T13:12:34;10.50;70.40
40600;DHT22;26309;50.924;4.754;2023-04-03T13:15:12;10.70;68.20
40600;DHT22;26309;50.924;4.754;2023-04-03T13:17:39;10.40;68.40
40600;DHT22;26309;50.924;4.754;2023-04-03T13:20:17;10.20;64.40
40600;DHT22;26309;50.924;4.754;2023-04-03T13:23:01;9.90;68.80
40600;DHT22;26309;50.924;4.754;2023-04-03T13:25:32;10.20;69.10
40600;DHT22;26309;50.924;4.754;2023-04-03T13:28:02;10.20;64.80
40600;DHT22;26309;50.924;4.754;2023-04-03T13:30:36;10.30;64.30
40600;DHT22;26309;50.924;4.754;2023-04-03T13:33:06;10.30;65.30
40600;DHT22;26309;50.924;4.754;2023-04-03T13:35:43;10.30;66.10
40600;DHT22;26309;50.924;4.754;2023-04-03T13:41:21;9.90;62.60
40600;DHT22;26309;50.924;4.754;2023-04-03T13:43:48;10.10;67.00
40600;DHT22;26309;50.924;4.754;2023-04-03T13:48:46;10.50;64.50
40600;DHT22;26309;50.924;4.754;2023-04-03T13:53:52;10.60;69.30
40600;DHT22;26309;50.924;4.754;2023-04-03T13:56:24;10.20;66.60
40600;DHT22;26309;50.924;4.754;2023-04-03T14:04:54;10.40;65.60
40600;DHT22;26309;50.924;4.754;2023-04-03T14:07:22;10.40;62.60
40600;DHT22;26309;50.924;4.754;2023-04-03T14:09:48;10.80;67.60
40600;DHT22;26309;50.924;4.754;2023-04-03T14:12:18;10.90;65.10
40600;DHT22;26309;50.924;4.754;2023-04-03T14:14:45;11.00;61.00
40600;DHT22;26309;50.924;4.754;2023-04-03T14:17:17;10.80;62.70
40600;DHT22;26309;50.924;4.754;2023-04-03T14:19:44;10.60;58.20
40600;DHT22;26309;50.924;4.754;2023-04-03T14:22:40;10.60;58.70
40600;DHT22;26309;50.924;4.754;2023-04-03T14:25:06;10.60;56.50
40600;DHT22;26309;50.924;4.754;2023-04-03T14:27:41;10.80;58.40
40600;DHT22;26309;50.924;4.754;2023-04-03T14:30:17;10.70;58.90
40600;DHT22;26309;50.924;4.754;2023-04-03T14:32:44;10.80;60.00
40600;DHT22;26309;50.924;4.754;2023-04-03T14:35:10;10.80;58.60
40600;DHT22;26309;50.924;4.754;2023-04-03T14:37:36;10.70;60.00
40600;DHT22;26309;50.924;4.754;2023-04-03T14:40:08;10.80;58.30
40600;DHT22;26309;50.924;4.754;2023-04-03T14:42:36;10.90;59.40
40600;DHT22;26309;50.924;4.754;2023-04-03T14:45:06;11.00;56.80
40600;DHT22;26309;50.924;4.754;2023-04-03T14:47:32;11.20;58.20
40600;DHT22;26309;50.924;4.754;2023-04-03T14:50:00;11.40;61.00
40600;DHT22;26309;50.924;4.754;2023-04-03T14:52:29;11.50;57.90
40600;DHT22;26309;50.924;4.754;2023-04-03T14:54:56;11.40;56.20
40600;DHT22;26309;50.924;4.754;2023-04-03T14:57:27;11.50;57.60
40600;DHT22;26309;50.924;4.754;2023-04-03T14:59:54;11.30;60.10
40600;DHT22;26309;50.924;4.754;2023-04-03T15:02:27;11.50;61.50
40600;DHT22;26309;50.924;4.754;2023-04-03T15:04:57;11.70;62.00
40600;DHT22;26309;50.924;4.754;2023-04-03T15:07:26;11.60;58.40
40600;DHT22;26309;50.924;4.754;2023-04-03T15:09:53;11.90;61.50
40600;DHT22;26309;50.924;4.754;2023-04-03T15:12:22;12.20;59.70
40600;DHT22;26309;50.924;4.754;2023-04-03T15:14:48;12.20;56.40
40600;DHT22;26309;50.924;4.754;2023-04-03T15:17:17;12.10;56.10
40600;DHT22;26309;50.924;4.754;2023-04-03T15:19:44;12.10;59.20
40600;DHT22;26309;50.924;4.754;2023-04-03T15:22:15;12.20;58.00
40600;DHT22;26309;50.924;4.754;2023-04-03T15:24:42;11.80;60.70
40600;DHT22;26309;50.924;4.754;2023-04-03T15:27:09;11.90;61.00
40600;DHT22;26309;50.924;4.754;2023-04-03T15:29:36;11.80;59.80
40600;DHT22;26309;50.924;4.754;2023-04-03T15:32:02;12.20;62.80
40600;DHT22;26309;50.924;4.754;2023-04-03T15:34:29;12.30;59.80
40600;DHT22;26309;50.924;4.754;2023-04-03T15:36:55;12.30;62.70
40600;DHT22;26309;50.924;4.754;2023-04-03T15:39:21;12.10;61.10
40600;DHT22;26309;50.924;4.754;2023-04-03T15:41:48;11.90;59.60
40600;DHT22;26309;50.924;4.754;2023-04-03T15:44:14;11.90;59.40
40600;DHT22;26309;50.924;4.754;2023-04-03T15:46:44;11.60;60.70
40600;DHT22;26309;50.924;4.754;2023-04-03T15:49:11;11.60;60.00
40600;DHT22;26309;50.924;4.754;2023-04-03T15:51:40;11.40;62.20
40600;DHT22;26309;50.924;4.754;2023-04-03T15:54:06;11.50;61.50
40600;DHT22;26309;50.924;4.754;2023-04-03T15:56:32;11.60;61.20
40600;DHT22;26309;50.924;4.754;2023-04-03T15:58:58;11.60;62.60
40600;DHT22;26309;50.924;4.754;2023-04-03T16:01:24;11.70;60.80
40600;DHT22;26309;50.924;4.754;2023-04-03T16:03:50;11.70;59.70
40600;DHT22;26309;50.924;4.754;2023-04-03T16:06:16;11.60;61.40
40600;DHT22;26309;50.924;4.754;2023-04-03T16:08:44;11.60;61.00
40600;DHT22;26309;50.924;4.754;2023-04-03T16:11:10;11.50;60.00
40600;DHT22;26309;50.924;4.754;2023-04-03T16:13:36;11.70;60.40
40600;DHT22;26309;50.924;4.754;2023-04-03T16:16:02;11.80;63.30
40600;DHT22;26309;50.924;4.754;2023-04-03T16:18:29;11.90;61.60
40600;DHT22;26309;50.924;4.754;2023-04-03T16:20:55;12.10;62.20
40600;DHT22;26309;50.924;4.754;2023-04-03T16:23:21;12.00;59.10
40600;DHT22;26309;50.924;4.754;2023-04-03T16:25:48;12.00;61.00
40600;DHT22;26309;50.924;4.754;2023-04-03T16:28:16;11.90;61.80
40600;DHT22;26309;50.924;4.754;2023-04-03T16:30:44;11.80;61.60
40600;DHT22;26309;50.924;4.754;2023-04-03T16:33:11;11.50;61.20
40600;DHT22;26309;50.924;4.754;2023-04-03T16:35:38;11.50;63.10
40600;DHT22;26309;50.924;4.754;2023-04-03T16:38:04;11.50;62.30
40600;DHT22;26309;50.924;4.754;2023-04-03T16:40:30;11.10;60.50
40600;DHT22;26309;50.924;4.754;2023-04-03T16:42:56;10.80;61.50
40600;DHT22;26309;50.924;4.754;2023-04-03T16:45:23;10.50;64.30
40600;DHT22;26309;50.924;4.754;2023-04-03T16:47:49;10.30;63.60
40600;DHT22;26309;50.924;4.754;2023-04-03T16:50:15;10.20;64.30
40600;DHT22;26309;50.924;4.754;2023-04-03T16:52:41;9.90;64.10
40600;DHT22;26309;50.924;4.754;2023-04-03T16:55:07;9.80;67.10
40600;DHT22;26309;50.924;4.754;2023-04-03T16:57:33;9.70;66.50
40600;DHT22;26309;50.924;4.754;2023-04-03T16:59:59;9.60;67.70
40600;DHT22;26309;50.924;4.754;2023-04-03T17:02:25;9.50;67.90
40600;DHT22;26309;50.924;4.754;2023-04-03T17:04:52;9.60;67.50
40600;DHT22;26309;50.924;4.754;2023-04-03T17:07:22;9.60;67.50
40600;DHT22;26309;50.924;4.754;2023-04-03T17:09:48;9.60;70.40
40600;DHT22;26309;50.924;4.754;2023-04-03T17:12:15;9.50;71.30
40600;DHT22;26309;50.924;4.754;2023-04-03T17:14:41;9.50;69.80
40600;DHT22;26309;50.924;4.754;2023-04-03T17:17:08;9.40;68.60
40600;DHT22;26309;50.924;4.754;2023-04-03T17:19:34;9.30;70.50
40600;DHT22;26309;50.924;4.754;2023-04-03T17:22:01;9.40;68.00
40600;DHT22;26309;50.924;4.754;2023-04-03T17:24:27;9.30;68.30
40600;DHT22;26309;50.924;4.754;2023-04-03T17:26:53;9.20;69.50
40600;DHT22;26309;50.924;4.754;2023-04-03T17:29:19;9.20;69.00
40600;DHT22;26309;50.924;4.754;2023-04-03T17:31:45;9.10;69.30
40600;DHT22;26309;50.924;4.754;2023-04-03T17:34:11;8.90;69.80
40600;DHT22;26309;50.924;4.754;2023-04-03T17:36:38;8.90;70.00